KTPH/TPH METAR and TAF weather

Enter ICAO airport designator
Station Type Date Time Source
KTPH METAR 2020/09/20 06:56 UTC NOAA

KTPH 200656Z AUTO 01013KT 10SM CLR 14/M12 A3012 RMK AO2 SLP138 T01391122


Station Type Date Time Source
KTPH Decoded METAR 2020/09/20 06:56 UTC NOAA

TONOPAH AIRPORT, NV, United States (KTPH) 38-02N 117-05W 1652M
Sep 20, 2020 - 02:56 AM EDT / 2020.09.20 0656 UTC
Wind: from the N (010 degrees) at 15 MPH (13 KT):0
Visibility: 10 mile(s):0
Sky conditions: clear
Temperature: 57.0 F (13.9 C)
Dew Point: 10.0 F (-12.2 C)
Relative Humidity: 15%
Pressure (altimeter): 30.12 in. Hg (1019 hPa)
ob: KTPH 200656Z AUTO 01013KT 10SM CLR 14/M12 A3012 RMK AO2 SLP138 T01391122
cycle: 7

Station Type Date Time Source
KTPH TAF 2020/09/20 06:22 UTC NOAA

TAF KTPH 200520Z 2006/2106 01006KT P6SM BKN250
FM201700 VRB06KT P6SM SCT200 OVC250
FM202000 20015KT P6SM BKN250
FM210100 20006KT P6SM SCT250

Example: see airport list